createdAt,value
2023-02-16T00:02:01.896Z,101532.44
2023-02-16T00:07:03.379Z,101531.88
2023-02-16T00:12:18.663Z,101528.84
2023-02-16T00:17:20.195Z,101527.97
2023-02-16T00:22:21.822Z,101536.16
2023-02-16T00:27:23.518Z,101534.66
2023-02-16T00:32:25.234Z,101531.22
2023-02-16T00:37:26.985Z,101538.66
2023-02-16T00:42:32.729Z,101532.50
2023-02-16T00:47:39.967Z,101535.91
2023-02-16T00:52:41.596Z,101540.97
2023-02-16T00:58:11.646Z,101545.63
2023-02-16T01:03:17.199Z,101538.66
2023-02-16T01:08:18.784Z,101541.88
2023-02-16T01:13:21.455Z,101540.00
2023-02-16T01:18:23.057Z,101552.38
2023-02-16T01:23:24.750Z,101540.81
2023-02-16T01:28:26.550Z,101545.53
2023-02-16T01:33:28.303Z,101529.56
2023-02-16T01:38:29.908Z,101536.81
2023-02-16T01:43:44.509Z,101544.44
2023-02-16T01:48:46.037Z,101537.91
2023-02-16T01:53:52.398Z,101528.91
2023-02-16T01:58:56.620Z,101513.38
2023-02-16T02:03:58.318Z,101518.09
2023-02-16T02:09:17.458Z,101516.63
2023-02-16T02:14:30.579Z,101503.44
2023-02-16T02:19:43.764Z,101497.06
2023-02-16T02:24:54.060Z,101502.75
2023-02-16T02:30:20.558Z,101494.94
2023-02-16T02:35:43.159Z,101493.88
2023-02-16T02:40:59.306Z,101487.59
2023-02-16T02:46:07.681Z,101483.06
2023-02-16T02:51:09.313Z,101486.06
2023-02-16T02:56:14.794Z,101486.50
2023-02-16T03:01:18.813Z,101491.34
2023-02-16T03:06:26.199Z,101483.97
2023-02-16T03:11:28.868Z,101487.34
2023-02-16T03:16:44.603Z,101483.09
2023-02-16T03:21:46.256Z,101481.88
2023-02-16T03:26:49.150Z,101482.56
2023-02-16T03:31:53.000Z,101486.09
2023-02-16T03:36:57.508Z,101474.94
2023-02-16T03:41:59.131Z,101472.94
2023-02-16T03:47:00.591Z,101472.19
2023-02-16T03:52:02.010Z,101477.25
2023-02-16T03:57:03.516Z,101476.63
2023-02-16T04:02:05.098Z,101475.91
2023-02-16T04:07:06.531Z,101473.34
2023-02-16T04:12:09.036Z,101475.31
2023-02-16T04:17:10.649Z,101473.38
2023-02-16T04:22:12.073Z,101474.56
2023-02-16T04:27:13.490Z,101478.16
2023-02-16T04:32:15.072Z,101483.66
2023-02-16T04:37:16.640Z,101475.19
2023-02-16T04:42:18.117Z,101477.13
2023-02-16T04:47:19.691Z,101474.59
2023-02-16T04:52:21.151Z,101477.13
2023-02-16T04:57:22.659Z,101463.81
2023-02-16T05:02:24.200Z,101470.63
2023-02-16T05:07:25.733Z,101463.16
2023-02-16T05:12:27.467Z,101461.44
2023-02-16T05:17:29.079Z,101472.63
2023-02-16T05:22:31.086Z,101478.09
2023-02-16T05:27:32.744Z,101485.25
2023-02-16T05:32:34.200Z,101482.19
2023-02-16T05:37:35.738Z,101486.47
2023-02-16T05:42:37.208Z,101491.81
2023-02-16T05:47:38.651Z,101488.41
2023-02-16T05:52:40.107Z,101489.69
2023-02-16T05:57:41.528Z,101495.53
2023-02-16T06:02:43.187Z,101493.44
2023-02-16T06:07:44.850Z,101492.81
2023-02-16T06:12:46.343Z,101497.22
2023-02-16T06:17:47.809Z,101496.69
2023-02-16T06:22:49.264Z,101496.06
2023-02-16T06:27:50.752Z,101487.41
2023-02-16T06:32:52.260Z,101487.47
2023-02-16T06:37:54.132Z,101495.53
2023-02-16T06:42:55.748Z,101502.97
2023-02-16T06:47:57.244Z,101500.53
2023-02-16T06:52:58.790Z,101503.22
2023-02-16T06:58:00.423Z,101502.53
2023-02-16T07:03:02.269Z,101506.56
2023-02-16T07:08:04.014Z,101504.00
2023-02-16T07:13:05.551Z,101501.69
2023-02-16T07:18:07.003Z,101510.72
2023-02-16T07:23:08.518Z,101514.81
2023-02-16T07:28:09.947Z,101513.81
2023-02-16T07:33:11.543Z,101508.72
2023-02-16T07:38:13.079Z,101505.44
2023-02-16T07:43:14.473Z,101513.63
2023-02-16T07:48:16.152Z,101517.25
2023-02-16T07:53:18.055Z,101516.53
2023-02-16T07:58:19.692Z,101515.53
2023-02-16T08:03:21.155Z,101516.94
2023-02-16T08:08:22.699Z,101528.28
2023-02-16T08:13:24.510Z,101540.03
2023-02-16T08:18:25.944Z,101538.38
2023-02-16T08:23:27.435Z,101546.56
2023-02-16T08:28:29.164Z,101557.69
2023-02-16T08:33:30.938Z,101556.13
2023-02-16T08:38:32.450Z,101544.16
2023-02-16T08:43:33.933Z,101554.75
2023-02-16T08:48:35.386Z,101552.16
2023-02-16T08:53:36.873Z,101551.09
2023-02-16T08:58:38.504Z,101551.00
2023-02-16T09:03:41.467Z,101547.13
2023-02-16T09:08:44.144Z,101534.88
2023-02-16T09:13:45.883Z,101537.91
2023-02-16T09:18:47.734Z,101529.38
2023-02-16T09:23:50.544Z,101541.34
2023-02-16T09:28:52.602Z,101529.06
2023-02-16T09:34:01.245Z,101515.81
2023-02-16T09:39:02.751Z,101516.31
2023-02-16T09:44:31.554Z,101500.94
2023-02-16T09:49:38.864Z,101504.34
2023-02-16T09:54:52.584Z,101511.69
2023-02-16T10:00:20.334Z,101513.03
2023-02-16T10:05:29.558Z,101505.72
2023-02-16T10:10:43.320Z,101494.09
2023-02-16T10:15:46.044Z,101494.75
2023-02-16T10:20:51.651Z,101505.28
2023-02-16T10:26:02.087Z,101501.53
2023-02-16T10:31:27.943Z,101492.22
2023-02-16T10:37:00.052Z,101479.47
2023-02-16T10:42:39.126Z,101489.09
2023-02-16T10:47:42.364Z,101484.31
2023-02-16T10:52:44.721Z,101476.88
2023-02-16T10:57:53.710Z,101476.84
2023-02-16T11:02:56.361Z,101471.41
2023-02-16T11:07:59.772Z,101473.63
2023-02-16T11:13:01.246Z,101466.94
2023-02-16T11:18:18.402Z,101461.41
2023-02-16T11:23:28.731Z,101457.81
2023-02-16T11:28:35.387Z,101458.31
2023-02-16T11:33:38.128Z,101449.06
2023-02-16T11:38:39.706Z,101444.75
2023-02-16T11:43:42.638Z,101443.38
2023-02-16T11:48:46.376Z,101442.44
2023-02-16T11:54:00.254Z,101434.53
2023-02-16T11:59:06.799Z,101428.22
2023-02-16T12:04:11.259Z,101420.81
2023-02-16T12:09:45.769Z,101425.13
2023-02-16T12:15:06.047Z,101420.19
2023-02-16T12:20:38.334Z,101407.41
2023-02-16T12:25:50.935Z,101405.63
2023-02-16T12:31:08.752Z,101403.13
2023-02-16T12:36:32.507Z,101401.91
2023-02-16T12:42:03.574Z,101389.88
2023-02-16T12:47:10.973Z,101399.00
2023-02-16T12:52:23.998Z,101385.41
2023-02-16T12:57:30.987Z,101366.41
2023-02-16T13:02:42.347Z,101367.09
2023-02-16T13:07:47.084Z,101348.81
2023-02-16T13:12:55.049Z,101352.63
2023-02-16T13:18:01.856Z,101341.84
2023-02-16T13:23:24.406Z,101335.69
2023-02-16T13:28:47.175Z,101343.56
2023-02-16T13:33:54.924Z,101336.84
2023-02-16T13:39:05.319Z,101337.16
2023-02-16T13:44:19.117Z,101336.91
2023-02-16T13:49:32.284Z,101327.97
2023-02-16T13:54:38.319Z,101325.75
2023-02-16T13:59:39.865Z,101330.59
2023-02-16T14:05:03.172Z,101336.44
2023-02-16T14:10:05.801Z,101324.16
2023-02-16T14:15:19.512Z,101313.28
2023-02-16T14:20:21.002Z,101326.41
2023-02-16T14:25:22.413Z,101323.25
2023-02-16T14:30:47.687Z,101322.44
2023-02-16T14:35:58.493Z,101327.16
2023-02-16T14:41:03.290Z,101322.16
2023-02-16T14:46:31.189Z,101325.66
2023-02-16T14:51:51.384Z,101320.44
2023-02-16T14:57:07.272Z,101328.50
2023-02-16T15:02:32.354Z,101321.47
2023-02-16T15:07:33.981Z,101323.44
2023-02-16T15:12:38.972Z,101326.09
2023-02-16T15:17:45.441Z,101318.50
2023-02-16T15:23:00.023Z,101294.56
2023-02-16T15:28:17.843Z,101298.81
2023-02-16T15:33:22.459Z,101307.66
2023-02-16T15:38:32.191Z,101302.38
2023-02-16T15:43:47.281Z,101289.59
2023-02-16T15:48:48.791Z,101283.44
2023-02-16T15:53:56.122Z,101277.56
2023-02-16T15:59:04.352Z,101276.06
2023-02-16T16:04:21.442Z,101271.59
2023-02-16T16:09:33.712Z,101271.22
2023-02-16T16:14:40.183Z,101273.09
2023-02-16T16:19:41.706Z,101257.81
2023-02-16T16:24:43.272Z,101264.94
2023-02-16T16:29:47.782Z,101263.03
2023-02-16T16:34:50.102Z,101277.31
2023-02-16T16:40:22.894Z,101271.25
2023-02-16T16:45:42.349Z,101273.84
2023-02-16T16:50:43.932Z,101267.31
2023-02-16T16:55:45.484Z,101262.19
2023-02-16T17:00:47.018Z,101268.97
2023-02-16T17:05:48.583Z,101271.81
2023-02-16T17:10:50.172Z,101278.75
2023-02-16T17:16:00.776Z,101285.19
2023-02-16T17:21:02.234Z,101281.81
2023-02-16T17:26:03.953Z,101289.00
2023-02-16T17:31:09.993Z,101296.47
2023-02-16T17:36:14.443Z,101293.50
2023-02-16T17:41:24.926Z,101299.41
2023-02-16T17:46:26.464Z,101296.78
2023-02-16T17:51:28.020Z,101283.06
2023-02-16T17:56:32.159Z,101284.69
2023-02-16T18:01:33.849Z,101277.66
2023-02-16T18:06:36.699Z,101284.78
2023-02-16T18:11:38.191Z,101274.50
2023-02-16T18:16:39.861Z,101266.94
2023-02-16T18:21:41.473Z,101257.19
2023-02-16T18:26:42.932Z,101257.03
2023-02-16T18:31:44.665Z,101262.63
2023-02-16T18:36:46.162Z,101251.75
2023-02-16T18:41:47.820Z,101274.34
2023-02-16T18:46:49.314Z,101274.88
2023-02-16T18:51:50.762Z,101267.56
2023-02-16T18:56:52.620Z,101271.25
2023-02-16T19:01:58.584Z,101268.47
2023-02-16T19:07:00.049Z,101280.38
2023-02-16T19:12:01.639Z,101279.91
2023-02-16T19:17:03.798Z,101274.00
2023-02-16T19:22:05.322Z,101274.31
2023-02-16T19:27:06.747Z,101273.81
2023-02-16T19:32:08.467Z,101271.22
2023-02-16T19:37:10.004Z,101272.09
2023-02-16T19:42:11.677Z,101261.22
2023-02-16T19:47:13.240Z,101260.97
2023-02-16T19:52:14.762Z,101267.44
2023-02-16T19:57:16.487Z,101254.09
2023-02-16T20:02:18.169Z,101250.38
2023-02-16T20:07:19.723Z,101255.06
2023-02-16T20:12:21.250Z,101245.31
2023-02-16T20:17:22.721Z,101239.53
2023-02-16T20:22:24.252Z,101234.81
2023-02-16T20:27:26.401Z,101231.13
2023-02-16T20:32:28.980Z,101227.13
2023-02-16T20:37:31.740Z,101224.03
2023-02-16T20:42:33.384Z,101220.94
2023-02-16T20:47:34.890Z,101222.50
2023-02-16T20:52:36.366Z,101213.88
2023-02-16T20:57:38.159Z,101211.72
2023-02-16T21:02:40.797Z,101215.19
2023-02-16T21:07:42.751Z,101198.66
2023-02-16T21:12:44.451Z,101202.78
2023-02-16T21:17:45.961Z,101200.28
2023-02-16T21:22:47.518Z,101187.50
2023-02-16T21:27:49.019Z,101187.72
2023-02-16T21:32:51.507Z,101189.44
2023-02-16T21:37:53.147Z,101178.00
2023-02-16T21:42:54.576Z,101179.09
2023-02-16T21:47:56.169Z,101170.88
2023-02-16T21:52:57.706Z,101166.31
2023-02-16T21:57:59.236Z,101164.94
2023-02-16T22:03:01.012Z,101166.91
2023-02-16T22:08:02.682Z,101167.69
2023-02-16T22:13:04.422Z,101161.56
2023-02-16T22:18:06.241Z,101165.44
2023-02-16T22:23:07.864Z,101168.75
2023-02-16T22:28:09.370Z,101161.91
2023-02-16T22:33:10.927Z,101166.56
2023-02-16T22:38:12.723Z,101150.09
2023-02-16T22:43:14.306Z,101165.19
2023-02-16T22:48:16.079Z,101164.50
2023-02-16T22:53:17.649Z,101177.03
2023-02-16T22:58:19.229Z,101175.59
2023-02-16T23:03:20.805Z,101167.75
2023-02-16T23:08:22.994Z,101174.88
2023-02-16T23:13:24.415Z,101166.72
2023-02-16T23:18:26.072Z,101159.94
2023-02-16T23:23:27.737Z,101159.22
2023-02-16T23:28:29.439Z,101168.16
2023-02-16T23:33:31.306Z,101162.50
2023-02-16T23:38:32.836Z,101159.72
2023-02-16T23:43:34.650Z,101172.94
2023-02-16T23:48:36.454Z,101157.72
2023-02-16T23:53:38.550Z,101144.72
2023-02-16T23:58:42.311Z,101134.38
